Aviation Digital Data Service (ADDS)

Output produced by METARs form (0735 UTC 01 September 2014)
found at http://aviationweather.gov/adds/metars/
 
KSWF 010524Z 0106/0212 VRB04KT 6SM BR FEW020 BKN040 
     TEMPO 0108/0112 2SM BR BKN015 
     FM011600 23005KT 6SM HZ SCT020 BKN040 
     PROB30 0116/0122 5SM SHRA BKN020 
     FM020000 VRB03KT 6SM BR SCT025 SCT040 AMD NOT SKED